createdAt,value
2022-12-25T00:01:59.318Z,101362.28
2022-12-25T00:04:28.186Z,101363.16
2022-12-25T00:06:55.655Z,101356.16
2022-12-25T00:09:21.999Z,101352.69
2022-12-25T00:11:48.428Z,101361.53
2022-12-25T00:14:14.757Z,101361.53
2022-12-25T00:16:41.258Z,101372.03
2022-12-25T00:19:07.558Z,101363.34
2022-12-25T00:21:35.245Z,101359.84
2022-12-25T00:24:01.936Z,101356.34
2022-12-25T00:26:30.579Z,101351.09
2022-12-25T00:28:57.864Z,101352.94
2022-12-25T00:31:24.870Z,101353.88
2022-12-25T00:33:51.791Z,101353.88
2022-12-25T00:36:19.531Z,101344.28
2022-12-25T00:38:55.263Z,101352.19
2022-12-25T00:41:44.306Z,101363.56
2022-12-25T00:44:12.594Z,101357.47
2022-12-25T00:46:39.535Z,101351.34
2022-12-25T00:49:08.577Z,101369.72
2022-12-25T00:51:34.868Z,101365.41
2022-12-25T00:54:01.227Z,101356.72
2022-12-25T00:56:27.561Z,101360.22
2022-12-25T00:58:56.734Z,101372.50
2022-12-25T01:01:29.456Z,101373.44
2022-12-25T01:03:56.063Z,101375.19
2022-12-25T01:06:24.176Z,101369.88
2022-12-25T01:09:16.691Z,101371.75
2022-12-25T01:11:52.809Z,101378.69
2022-12-25T01:14:19.304Z,101377.88
2022-12-25T01:16:45.858Z,101372.63
2022-12-25T01:19:12.185Z,101370.88
2022-12-25T01:21:38.647Z,101366.50
2022-12-25T01:24:05.284Z,101364.75
2022-12-25T01:26:31.517Z,101371.66
2022-12-25T01:28:59.644Z,101378.69
2022-12-25T01:31:26.062Z,101382.25
2022-12-25T01:33:52.792Z,101377.03
2022-12-25T01:36:23.678Z,101380.59
2022-12-25T01:38:50.181Z,101377.97
2022-12-25T01:41:17.419Z,101370.94
2022-12-25T01:44:08.005Z,101374.38
2022-12-25T01:46:34.963Z,101362.13
2022-12-25T01:49:14.641Z,101372.63
2022-12-25T01:51:43.193Z,101370.09
2022-12-25T01:54:13.141Z,101365.72
2022-12-25T01:56:40.324Z,101363.97
2022-12-25T01:59:06.845Z,101370.16
2022-12-25T02:01:33.327Z,101373.66
2022-12-25T02:04:05.614Z,101371.91
2022-12-25T02:06:33.274Z,101378.03
2022-12-25T02:08:59.783Z,101389.41
2022-12-25T02:11:44.655Z,101388.56
2022-12-25T02:14:11.195Z,101391.16
2022-12-25T02:16:56.694Z,101375.41
2022-12-25T02:19:27.481Z,101378.94
2022-12-25T02:21:53.808Z,101373.66
2022-12-25T02:24:23.404Z,101371.91
2022-12-25T02:26:55.862Z,101369.22
2022-12-25T02:29:29.381Z,101366.59
2022-12-25T02:31:55.930Z,101366.53
2022-12-25T02:34:29.430Z,101362.97
2022-12-25T02:37:15.748Z,101362.06
2022-12-25T02:40:00.828Z,101361.16
2022-12-25T02:42:59.028Z,101358.56
2022-12-25T02:45:47.167Z,101353.28
2022-12-25T02:48:33.384Z,101341.91
2022-12-25T02:51:23.358Z,101342.75
2022-12-25T02:54:10.721Z,101336.59
2022-12-25T02:56:58.762Z,101336.63
2022-12-25T02:59:43.978Z,101338.31
2022-12-25T03:02:31.780Z,101326.94
2022-12-25T03:05:18.473Z,101322.50
2022-12-25T03:07:47.832Z,101326.84
2022-12-25T03:10:33.628Z,101316.28
2022-12-25T03:13:06.133Z,101317.28
2022-12-25T03:15:52.428Z,101315.56
2022-12-25T03:18:34.324Z,101306.88
2022-12-25T03:21:19.712Z,101306.00
2022-12-25T03:24:07.797Z,101303.44
2022-12-25T03:26:53.272Z,101309.59
2022-12-25T03:29:38.448Z,101317.47
2022-12-25T03:32:10.634Z,101314.94
2022-12-25T03:35:14.736Z,101315.00
2022-12-25T03:38:07.808Z,101316.75
2022-12-25T03:40:58.883Z,101322.88
2022-12-25T03:43:59.769Z,101320.31
2022-12-25T03:46:48.202Z,101317.72
2022-12-25T03:49:40.023Z,101320.41
2022-12-25T03:52:27.120Z,101318.66
2022-12-25T03:55:20.400Z,101303.78
2022-12-25T03:58:05.227Z,101308.22
2022-12-25T04:00:50.168Z,101302.13
2022-12-25T04:03:34.988Z,101303.97
2022-12-25T04:06:20.028Z,101306.66
2022-12-25T04:09:05.234Z,101304.88
2022-12-25T04:11:49.985Z,101299.69
2022-12-25T04:14:34.926Z,101295.28
2022-12-25T04:17:19.639Z,101284.59
2022-12-25T04:20:04.505Z,101285.41
2022-12-25T04:22:49.358Z,101297.94
2022-12-25T04:25:34.359Z,101313.75
2022-12-25T04:28:20.256Z,101314.56
2022-12-25T04:31:05.881Z,101313.66
2022-12-25T04:33:51.089Z,101317.19
2022-12-25T04:36:17.413Z,101305.88
2022-12-25T04:38:43.876Z,101305.00
2022-12-25T04:41:11.397Z,101316.34
2022-12-25T04:43:38.117Z,101302.28
2022-12-25T04:46:05.620Z,101283.06
2022-12-25T04:48:33.751Z,101294.50
2022-12-25T04:51:09.737Z,101305.88
2022-12-25T04:53:36.071Z,101296.25
2022-12-25T04:56:03.170Z,101293.69
2022-12-25T04:58:30.969Z,101290.28
2022-12-25T05:00:59.237Z,101301.56
2022-12-25T05:03:28.034Z,101300.75
2022-12-25T05:05:54.832Z,101294.63
2022-12-25T05:08:21.604Z,101287.66
2022-12-25T05:10:48.157Z,101279.78
2022-12-25T05:13:15.011Z,101281.56
2022-12-25T05:15:42.729Z,101274.53
2022-12-25T05:18:09.324Z,101291.16
2022-12-25T05:20:40.005Z,101276.28
2022-12-25T05:23:06.829Z,101273.69
2022-12-25T05:25:34.539Z,101274.53
2022-12-25T05:28:03.512Z,101268.44
2022-12-25T05:30:29.873Z,101261.41
2022-12-25T05:32:56.524Z,101257.94
2022-12-25T05:35:22.890Z,101256.16
2022-12-25T05:37:49.235Z,101259.63
2022-12-25T05:40:15.545Z,101255.25
2022-12-25T05:42:41.893Z,101269.16
2022-12-25T05:45:08.420Z,101258.66
2022-12-25T05:47:34.667Z,101261.28
2022-12-25T05:50:01.075Z,101246.38
2022-12-25T05:52:30.852Z,101253.38
2022-12-25T05:54:57.541Z,101254.19
2022-12-25T05:57:23.792Z,101255.94
2022-12-25T05:59:50.176Z,101257.69
2022-12-25T06:02:16.652Z,101259.44
2022-12-25T06:04:43.029Z,101256.81
2022-12-25T06:07:10.431Z,101251.56
2022-12-25T06:09:38.046Z,101251.56
2022-12-25T06:12:04.399Z,101229.69
2022-12-25T06:14:32.488Z,101230.56
2022-12-25T06:16:59.213Z,101222.66
2022-12-25T06:19:25.653Z,101218.25
2022-12-25T06:21:55.777Z,101223.47
2022-12-25T06:24:23.028Z,101227.00
2022-12-25T06:26:52.441Z,101221.75
2022-12-25T06:29:18.742Z,101230.56
2022-12-25T06:31:46.340Z,101232.38
2022-12-25T06:34:16.332Z,101227.97
2022-12-25T06:36:42.792Z,101224.50
2022-12-25T06:39:09.533Z,101226.19
2022-12-25T06:41:37.415Z,101227.06
2022-12-25T06:44:05.167Z,101212.91
2022-12-25T06:46:31.634Z,101223.50
2022-12-25T06:48:58.699Z,101224.38
2022-12-25T06:51:27.245Z,101213.88
2022-12-25T06:53:53.635Z,101220.00
2022-12-25T06:56:24.221Z,101214.78
2022-12-25T06:59:11.009Z,101213.91
2022-12-25T07:01:43.757Z,101206.00
2022-12-25T07:04:14.058Z,101210.38
2022-12-25T07:06:46.530Z,101218.28
2022-12-25T07:09:13.904Z,101208.66
2022-12-25T07:11:40.231Z,101203.41
2022-12-25T07:14:06.548Z,101208.66
2022-12-25T07:16:33.012Z,101205.16
2022-12-25T07:19:00.683Z,101200.78
2022-12-25T07:21:27.160Z,101202.59
2022-12-25T07:23:53.776Z,101213.13
2022-12-25T07:26:22.850Z,101224.53
2022-12-25T07:28:49.126Z,101210.53
2022-12-25T07:31:16.358Z,101211.41
2022-12-25T07:33:42.968Z,101210.63
2022-12-25T07:36:10.242Z,101225.53
2022-12-25T07:38:39.412Z,101221.19
2022-12-25T07:41:09.709Z,101219.50
2022-12-25T07:43:36.048Z,101217.78
2022-12-25T07:46:04.485Z,101232.72
2022-12-25T07:48:31.370Z,101232.66
2022-12-25T07:51:09.499Z,101240.59
2022-12-25T07:53:36.376Z,101240.63
2022-12-25T07:56:04.479Z,101236.28
2022-12-25T07:58:30.971Z,101227.44
2022-12-25T08:01:02.545Z,101223.06
2022-12-25T08:03:29.298Z,101217.78
2022-12-25T08:05:58.688Z,101220.41
2022-12-25T08:08:25.001Z,101225.66
2022-12-25T08:10:51.260Z,101228.28
2022-12-25T08:13:17.593Z,101238.75
2022-12-25T08:15:44.024Z,101244.81
2022-12-25T08:18:10.378Z,101255.28
2022-12-25T08:20:36.689Z,101262.16
2022-12-25T08:23:03.873Z,101259.50
2022-12-25T08:25:30.458Z,101257.78
2022-12-25T08:27:56.746Z,101256.03
2022-12-25T08:30:23.082Z,101236.78
2022-12-25T08:32:49.376Z,101242.91
2022-12-25T08:35:21.978Z,101246.50
2022-12-25T08:37:48.438Z,101244.75
2022-12-25T08:40:16.275Z,101242.13
2022-12-25T08:42:48.331Z,101239.56
2022-12-25T08:45:14.752Z,101236.16
2022-12-25T08:47:41.064Z,101224.81
2022-12-25T08:50:07.749Z,101222.25
2022-12-25T08:52:34.497Z,101221.41
2022-12-25T08:55:01.049Z,101224.06
2022-12-25T08:57:27.332Z,101226.69
2022-12-25T08:59:56.097Z,101218.81
2022-12-25T09:02:22.463Z,101226.69
2022-12-25T09:04:48.876Z,101232.03
2022-12-25T09:07:15.202Z,101233.81
2022-12-25T09:09:43.450Z,101223.31
2022-12-25T09:12:09.746Z,101223.31
2022-12-25T09:14:36.242Z,101231.19
2022-12-25T09:17:04.081Z,101243.44
2022-12-25T09:19:31.118Z,101247.00
2022-12-25T09:21:57.442Z,101251.38
2022-12-25T09:24:23.847Z,101254.84
2022-12-25T09:26:50.260Z,101250.41
2022-12-25T09:29:17.857Z,101239.06
2022-12-25T09:31:44.285Z,101238.19
2022-12-25T09:34:16.955Z,101255.75
2022-12-25T09:36:45.048Z,101254.00
2022-12-25T09:39:11.435Z,101246.13
2022-12-25T09:41:46.857Z,101248.75
2022-12-25T09:44:16.304Z,101241.69
2022-12-25T09:46:45.656Z,101244.38
2022-12-25T09:49:16.939Z,101239.16
2022-12-25T09:51:45.277Z,101232.06
2022-12-25T09:54:18.873Z,101235.63
2022-12-25T09:56:45.147Z,101233.88
2022-12-25T09:59:21.039Z,101226.91
2022-12-25T10:01:50.444Z,101237.44
2022-12-25T10:04:16.781Z,101229.56
2022-12-25T10:06:48.876Z,101227.78
2022-12-25T10:09:18.483Z,101233.97
2022-12-25T10:11:50.707Z,101229.56
2022-12-25T10:14:26.144Z,101225.19
2022-12-25T10:17:11.960Z,101226.09
2022-12-25T10:19:38.294Z,101221.72
2022-12-25T10:22:13.138Z,101219.13
2022-12-25T10:24:54.183Z,101221.84
2022-12-25T10:27:31.267Z,101220.13
2022-12-25T10:29:58.603Z,101213.13
2022-12-25T10:32:24.923Z,101208.75
2022-12-25T10:34:51.376Z,101199.09
2022-12-25T10:37:17.676Z,101192.94
2022-12-25T10:39:46.900Z,101193.84
2022-12-25T10:42:23.587Z,101179.84
2022-12-25T10:45:08.146Z,101171.97
2022-12-25T10:47:38.047Z,101176.34
2022-12-25T10:50:24.662Z,101173.72
2022-12-25T10:52:56.126Z,101161.41
2022-12-25T10:55:28.392Z,101146.50
2022-12-25T10:57:57.718Z,101150.88
2022-12-25T11:00:31.241Z,101141.25
2022-12-25T11:02:57.884Z,101136.00
2022-12-25T11:05:32.236Z,101145.69
2022-12-25T11:08:00.550Z,101146.59
2022-12-25T11:10:32.865Z,101144.84
2022-12-25T11:12:59.894Z,101139.66
2022-12-25T11:15:35.816Z,101130.03
2022-12-25T11:18:02.961Z,101123.91
2022-12-25T11:20:29.782Z,101123.84
2022-12-25T11:22:56.133Z,101134.34
2022-12-25T11:25:26.869Z,101122.03
2022-12-25T11:28:01.167Z,101107.19
2022-12-25T11:30:28.916Z,101104.56
2022-12-25T11:32:58.715Z,101106.31
2022-12-25T11:35:27.819Z,101084.44
2022-12-25T11:37:54.313Z,101066.03
2022-12-25T11:40:23.777Z,101074.78
2022-12-25T11:42:55.180Z,101066.91
2022-12-25T11:45:27.124Z,101064.25
2022-12-25T11:47:58.943Z,101062.50
2022-12-25T11:50:25.248Z,101066.91
2022-12-25T11:52:52.123Z,101066.94
2022-12-25T11:55:31.070Z,101063.50
2022-12-25T11:57:59.599Z,101079.28
2022-12-25T12:00:27.486Z,101070.53
2022-12-25T12:03:01.346Z,101069.66
2022-12-25T12:05:45.264Z,101073.16
2022-12-25T12:08:13.791Z,101068.78
2022-12-25T12:10:54.443Z,101067.00
2022-12-25T12:13:20.739Z,101063.50
2022-12-25T12:15:48.119Z,101055.66
2022-12-25T12:18:29.970Z,101053.91
2022-12-25T12:20:59.127Z,101044.28
2022-12-25T12:23:25.748Z,101039.00
2022-12-25T12:25:52.564Z,101039.00
2022-12-25T12:28:32.658Z,101025.03
2022-12-25T12:31:06.069Z,101007.53
2022-12-25T12:33:37.860Z,101006.66
2022-12-25T12:36:05.400Z,101003.16
2022-12-25T12:38:32.590Z,101029.41
2022-12-25T12:40:58.894Z,101025.88
2022-12-25T12:43:30.700Z,101020.59
2022-12-25T12:46:00.997Z,101022.38
2022-12-25T12:48:28.319Z,101028.53
2022-12-25T12:51:08.669Z,101027.66
2022-12-25T12:53:38.348Z,101026.78
2022-12-25T12:56:27.714Z,101022.41
2022-12-25T12:59:13.934Z,101025.03
2022-12-25T13:02:15.560Z,101014.50
2022-12-25T13:04:48.811Z,101004.84
2022-12-25T13:07:34.012Z,100990.84
2022-12-25T13:10:19.262Z,100992.53
2022-12-25T13:12:45.996Z,100979.34
2022-12-25T13:15:13.747Z,100972.31
2022-12-25T13:17:42.934Z,100967.97
2022-12-25T13:20:18.269Z,100963.59
2022-12-25T13:22:50.652Z,100957.47
2022-12-25T13:25:22.637Z,100965.34
2022-12-25T13:27:57.353Z,100955.66
2022-12-25T13:30:35.121Z,100950.38
2022-12-25T13:33:03.781Z,100953.91
2022-12-25T13:35:33.504Z,100946.00
2022-12-25T13:38:01.480Z,100953.00
2022-12-25T13:40:28.490Z,100949.50
2022-12-25T13:42:58.496Z,100954.78
2022-12-25T13:45:29.785Z,100954.78
2022-12-25T13:47:56.903Z,100956.53
2022-12-25T13:50:23.303Z,100960.88
2022-12-25T13:52:50.640Z,100966.13
2022-12-25T13:55:24.624Z,100971.41
2022-12-25T13:57:52.756Z,100965.31
2022-12-25T14:00:24.247Z,100960.91
2022-12-25T14:02:51.341Z,100959.16
2022-12-25T14:05:42.263Z,100963.47
2022-12-25T14:08:17.473Z,100960.00
2022-12-25T14:10:45.927Z,100959.09
2022-12-25T14:13:19.320Z,100952.06
2022-12-25T14:15:47.796Z,100957.28
2022-12-25T14:18:18.577Z,100967.81
2022-12-25T14:21:03.731Z,100969.53
2022-12-25T14:23:37.568Z,100967.78
2022-12-25T14:26:04.119Z,100959.03
2022-12-25T14:28:32.991Z,100952.91
2022-12-25T14:31:02.793Z,100954.66
2022-12-25T14:33:35.218Z,100953.78
2022-12-25T14:36:01.988Z,100954.66
2022-12-25T14:38:30.405Z,100952.03
2022-12-25T14:41:09.267Z,100938.03
2022-12-25T14:43:43.411Z,100936.31
2022-12-25T14:46:22.215Z,100930.19
2022-12-25T14:48:58.053Z,100931.94
2022-12-25T14:51:24.905Z,100923.22
2022-12-25T14:53:53.250Z,100930.22
2022-12-25T14:56:20.916Z,100929.34
2022-12-25T14:58:49.955Z,100933.66
2022-12-25T15:01:27.891Z,100931.03
2022-12-25T15:04:04.072Z,100933.66
2022-12-25T15:06:31.135Z,100935.44
2022-12-25T15:09:02.352Z,100944.16
2022-12-25T15:11:28.799Z,100950.31
2022-12-25T15:13:55.267Z,100945.06
2022-12-25T15:16:33.934Z,100937.16
2022-12-25T15:19:02.199Z,100946.84
2022-12-25T15:21:29.730Z,100943.38
2022-12-25T15:23:59.657Z,100942.47
2022-12-25T15:26:27.608Z,100947.75
2022-12-25T15:28:53.965Z,100943.38
2022-12-25T15:31:25.810Z,100939.88
2022-12-25T15:33:52.931Z,100938.13
2022-12-25T15:36:19.384Z,100937.25
2022-12-25T15:38:45.768Z,100935.50
2022-12-25T15:41:33.568Z,100936.41
2022-12-25T15:44:00.222Z,100931.16
2022-12-25T15:46:26.889Z,100931.16
2022-12-25T15:48:53.476Z,100918.88
2022-12-25T15:51:19.872Z,100918.88
2022-12-25T15:53:46.213Z,100918.88
2022-12-25T15:56:12.683Z,100921.47
2022-12-25T15:58:39.056Z,100919.72
2022-12-25T16:01:10.890Z,100913.50
2022-12-25T16:03:37.864Z,100928.47
2022-12-25T16:06:04.239Z,100930.25
2022-12-25T16:08:31.657Z,100931.97
2022-12-25T16:10:58.014Z,100927.63
2022-12-25T16:13:24.330Z,100931.09
2022-12-25T16:15:52.360Z,100921.47
2022-12-25T16:18:18.740Z,100920.59
2022-12-25T16:20:45.136Z,100914.50
2022-12-25T16:23:11.779Z,100916.25
2022-12-25T16:25:38.219Z,100915.34
2022-12-25T16:28:09.546Z,100922.38
2022-12-25T16:30:36.787Z,100910.94
2022-12-25T16:33:03.155Z,100903.06
2022-12-25T16:35:29.743Z,100909.16
2022-12-25T16:37:56.139Z,100907.41
2022-12-25T16:40:22.516Z,100893.41
2022-12-25T16:42:51.984Z,100895.16
2022-12-25T16:45:18.332Z,100889.00
2022-12-25T16:47:44.674Z,100891.63
2022-12-25T16:50:13.881Z,100885.47
2022-12-25T16:52:43.116Z,100891.59
2022-12-25T16:55:09.705Z,100892.47
2022-12-25T16:57:36.120Z,100891.63
2022-12-25T17:00:03.993Z,100893.41
2022-12-25T17:02:30.497Z,100883.81
2022-12-25T17:04:56.952Z,100889.09
2022-12-25T17:07:23.286Z,100885.56
2022-12-25T17:09:49.880Z,100887.38
2022-12-25T17:12:16.361Z,100894.38
2022-12-25T17:14:42.818Z,100899.63
2022-12-25T17:17:09.073Z,100904.00
2022-12-25T17:19:35.416Z,100904.00
2022-12-25T17:22:01.850Z,100904.88
2022-12-25T17:24:29.046Z,100898.75
2022-12-25T17:26:55.534Z,100904.91
2022-12-25T17:29:22.901Z,100899.66
2022-12-25T17:31:49.432Z,100898.81
2022-12-25T17:34:19.108Z,100890.03
2022-12-25T17:36:45.498Z,100894.41
2022-12-25T17:39:12.130Z,100896.16
2022-12-25T17:41:38.530Z,100890.94
2022-12-25T17:44:04.868Z,100893.56
2022-12-25T17:46:31.434Z,100895.34
2022-12-25T17:49:00.808Z,100896.22
2022-12-25T17:51:30.020Z,100894.44
2022-12-25T17:53:58.128Z,100901.47
2022-12-25T17:56:24.883Z,100897.94
2022-12-25T17:58:52.532Z,100901.47
2022-12-25T18:01:19.912Z,100895.31
2022-12-25T18:03:46.415Z,100880.44
2022-12-25T18:06:14.019Z,100890.06
2022-12-25T18:08:41.217Z,100882.22
2022-12-25T18:11:10.920Z,100874.34
2022-12-25T18:13:37.590Z,100881.34
2022-12-25T18:16:04.942Z,100876.97
2022-12-25T18:18:32.514Z,100870.84
2022-12-25T18:20:59.233Z,100861.22
2022-12-25T18:23:25.718Z,100865.59
2022-12-25T18:25:52.108Z,100857.69
2022-12-25T18:28:18.917Z,100856.78
2022-12-25T18:30:45.921Z,100865.53
2022-12-25T18:33:12.681Z,100880.41
2022-12-25T18:35:40.649Z,100887.41
2022-12-25T18:38:10.103Z,100876.03
2022-12-25T18:40:43.061Z,100881.28
2022-12-25T18:43:11.539Z,100895.31
2022-12-25T18:45:38.315Z,100905.78
2022-12-25T18:48:06.297Z,100912.81
2022-12-25T18:50:34.332Z,100904.06
2022-12-25T18:53:04.492Z,100910.16
2022-12-25T18:55:31.753Z,100902.28
2022-12-25T18:57:58.187Z,100902.31
2022-12-25T19:00:25.041Z,100892.72
2022-12-25T19:02:56.129Z,100882.19
2022-12-25T19:05:23.854Z,100876.03
2022-12-25T19:07:50.189Z,100884.81
2022-12-25T19:10:16.521Z,100880.47
2022-12-25T19:12:46.007Z,100880.50
2022-12-25T19:15:12.729Z,100878.72
2022-12-25T19:17:39.044Z,100881.38
2022-12-25T19:20:06.520Z,100878.75
2022-12-25T19:22:33.075Z,100879.66
2022-12-25T19:24:59.470Z,100872.66
2022-12-25T19:27:26.275Z,100868.25
2022-12-25T19:29:52.787Z,100876.16
2022-12-25T19:32:19.262Z,100874.38
2022-12-25T19:34:47.143Z,100881.44
2022-12-25T19:37:15.161Z,100879.66
2022-12-25T19:39:46.458Z,100877.03
2022-12-25T19:42:16.226Z,100878.81
2022-12-25T19:44:43.493Z,100884.91
2022-12-25T19:47:10.643Z,100884.03
2022-12-25T19:49:37.519Z,100890.16
2022-12-25T19:52:04.241Z,100891.06
2022-12-25T19:54:31.255Z,100886.69
2022-12-25T19:56:57.651Z,100888.44
2022-12-25T19:59:24.071Z,100899.81
2022-12-25T20:01:50.662Z,100889.28
2022-12-25T20:04:18.815Z,100891.94
2022-12-25T20:06:45.557Z,100892.81
2022-12-25T20:09:20.620Z,100888.44
2022-12-25T20:11:51.076Z,100894.59
2022-12-25T20:14:20.128Z,100889.31
2022-12-25T20:16:47.240Z,100898.09
2022-12-25T20:19:14.514Z,100899.84
2022-12-25T20:21:41.395Z,100899.84
2022-12-25T20:24:10.115Z,100896.34
2022-12-25T20:26:36.797Z,100901.63
2022-12-25T20:29:03.230Z,100901.59
2022-12-25T20:31:31.657Z,100892.84
2022-12-25T20:33:59.892Z,100897.22
2022-12-25T20:36:29.677Z,100897.22
2022-12-25T20:39:02.481Z,100887.63
2022-12-25T20:41:29.887Z,100890.25
2022-12-25T20:43:57.149Z,100891.13
2022-12-25T20:46:24.410Z,100898.16
2022-12-25T20:48:51.852Z,100895.53
2022-12-25T20:51:20.015Z,100906.06
2022-12-25T20:53:51.650Z,100892.94
2022-12-25T20:56:20.236Z,100894.69
2022-12-25T20:58:46.863Z,100892.94
2022-12-25T21:01:15.177Z,100898.19
2022-12-25T21:03:42.060Z,100904.28
2022-12-25T21:06:09.049Z,100892.03
2022-12-25T21:08:36.940Z,100900.75
2022-12-25T21:11:06.418Z,100909.53
2022-12-25T21:13:34.410Z,100911.28
2022-12-25T21:16:01.385Z,100902.41
2022-12-25T21:18:28.314Z,100916.53
2022-12-25T21:20:58.871Z,100917.38
2022-12-25T21:23:28.755Z,100925.25
2022-12-25T21:25:55.212Z,100922.59
2022-12-25T21:28:23.756Z,100921.75
2022-12-25T21:30:50.208Z,100903.28
2022-12-25T21:33:35.551Z,100927.03
2022-12-25T21:36:06.174Z,100926.16
2022-12-25T21:38:35.293Z,100934.06
2022-12-25T21:41:02.710Z,100930.56
2022-12-25T21:43:29.253Z,100934.06
2022-12-25T21:45:55.640Z,100940.19
2022-12-25T21:48:22.073Z,100924.38
2022-12-25T21:51:07.115Z,100936.69
2022-12-25T21:53:33.560Z,100940.19
2022-12-25T21:56:02.229Z,100935.78
2022-12-25T21:58:29.050Z,100936.63
2022-12-25T22:00:55.695Z,100935.75
2022-12-25T22:03:23.101Z,100940.97
2022-12-25T22:06:08.133Z,100945.34
2022-12-25T22:08:34.640Z,100954.06
2022-12-25T22:11:04.317Z,100947.91
2022-12-25T22:13:49.253Z,100941.78
2022-12-25T22:16:34.800Z,100940.94
2022-12-25T22:19:20.945Z,100941.81
2022-12-25T22:21:47.286Z,100937.44
2022-12-25T22:24:14.104Z,100948.81
2022-12-25T22:26:44.820Z,100939.16
2022-12-25T22:29:11.285Z,100945.25
2022-12-25T22:31:46.751Z,100953.16
2022-12-25T22:34:15.172Z,100950.53
2022-12-25T22:36:41.605Z,100944.41
2022-12-25T22:39:08.020Z,100932.97
2022-12-25T22:41:34.985Z,100925.09
2022-12-25T22:44:18.561Z,100914.63
2022-12-25T22:46:48.404Z,100901.50
2022-12-25T22:49:16.467Z,100914.63
2022-12-25T22:51:43.836Z,100912.03
2022-12-25T22:54:31.003Z,100902.38
2022-12-25T22:56:58.020Z,100911.09
2022-12-25T22:59:24.435Z,100915.50
2022-12-25T23:01:59.972Z,100926.03
2022-12-25T23:04:26.828Z,100926.03
2022-12-25T23:06:53.171Z,100919.91
2022-12-25T23:09:24.941Z,100934.78
2022-12-25T23:11:51.350Z,100931.28
2022-12-25T23:14:36.252Z,100932.13
2022-12-25T23:17:05.635Z,100915.44
2022-12-25T23:19:50.816Z,100925.06
2022-12-25T23:22:36.340Z,100918.91
2022-12-25T23:25:21.621Z,100908.41
2022-12-25T23:27:48.218Z,100895.25
2022-12-25T23:30:15.939Z,100910.16
2022-12-25T23:32:42.942Z,100907.53
2022-12-25T23:35:10.204Z,100912.75
2022-12-25T23:37:36.657Z,100920.59
2022-12-25T23:40:06.268Z,100914.47
2022-12-25T23:42:35.758Z,100919.72
2022-12-25T23:45:02.666Z,100922.34
2022-12-25T23:47:29.097Z,100930.22
2022-12-25T23:49:55.412Z,100929.31
2022-12-25T23:52:28.323Z,100935.50
2022-12-25T23:54:57.701Z,100934.59
2022-12-25T23:57:24.222Z,100950.44
2022-12-25T23:59:53.064Z,100935.53
